Time;durP1;ratioP1;P1;durP2;ratioP2;P2;SDS_P1;SDS_P2;PMS_P1;PMS_P2;Temp;Humidity;BMP_temperature;BMP_pressure;BME280_temperature;BME280_humidity;BME280_pressure;Samples;Min_cycle;Max_cycle;Signal;HPM_P1;HPM_P2
2022/11/13 00:00:13;;;;;;;29.45;20.92;;;;;;;;;;5090976;28;20028;-65
2022/11/13 00:02:39;;;;;;;33.05;22.40;;;;;;;;;;5091479;28;20169;-64
2022/11/13 00:05:05;;;;;;;38.40;24.48;;;;;;;;;;5091483;28;20522;-65
2022/11/13 00:07:31;;;;;;;37.33;23.10;;;;;;;;;;5091942;28;20547;-65
2022/11/13 00:09:57;;;;;;;35.03;22.98;;;;;;;;;;5092045;28;20115;-65
2022/11/13 00:12:23;;;;;;;34.05;21.25;;;;;;;;;;5093072;28;20024;-66
2022/11/13 00:14:49;;;;;;;34.90;23.63;;;;;;;;;;5092425;28;20114;-65
2022/11/13 00:17:15;;;;;;;30.48;19.80;;;;;;;;;;5092007;28;20123;-65
2022/11/13 00:19:41;;;;;;;35.00;21.67;;;;;;;;;;5092940;28;20051;-65
2022/11/13 00:22:07;;;;;;;39.38;22.48;;;;;;;;;;5091801;28;20028;-65
2022/11/13 00:24:33;;;;;;;30.60;21.73;;;;;;;;;;5090757;28;20119;-65
2022/11/13 00:26:59;;;;;;;30.77;20.75;;;;;;;;;;5091704;28;20035;-65
2022/11/13 00:29:25;;;;;;;33.20;20.90;;;;;;;;;;5093048;28;20020;-65
2022/11/13 00:31:51;;;;;;;32.03;21.58;;;;;;;;;;5091871;28;20314;-64
2022/11/13 00:34:17;;;;;;;31.20;19.52;;;;;;;;;;5092449;28;20023;-64
2022/11/13 00:36:43;;;;;;;25.50;18.15;;;;;;;;;;5092801;28;20017;-64
2022/11/13 00:39:10;;;;;;;32.38;19.33;;;;;;;;;;5091699;28;20069;-65
2022/11/13 00:41:36;;;;;;;32.65;18.42;;;;;;;;;;5091588;28;20035;-63
2022/11/13 00:44:02;;;;;;;28.42;18.52;;;;;;;;;;5092237;28;20047;-64
2022/11/13 00:46:29;;;;;;;26.10;18.25;;;;;;;;;;5092004;28;20020;-65
2022/11/13 00:48:55;;;;;;;30.00;19.48;;;;;;;;;;5091542;28;20483;-65
2022/11/13 00:51:21;;;;;;;29.23;18.92;;;;;;;;;;5091605;28;20031;-66
2022/11/13 00:53:47;;;;;;;30.05;20.20;;;;;;;;;;5091844;28;20020;-65
2022/11/13 00:56:13;;;;;;;32.45;21.88;;;;;;;;;;5091442;28;20023;-64
2022/11/13 00:58:39;;;;;;;27.98;18.63;;;;;;;;;;5091396;28;20484;-65
2022/11/13 01:01:07;;;;;;;25.98;18.27;;;;;;;;;;5092340;28;20035;-66
2022/11/13 01:03:33;;;;;;;26.58;19.25;;;;;;;;;;5090322;28;20051;-64
2022/11/13 01:05:59;;;;;;;27.27;18.10;;;;;;;;;;5091404;28;20024;-65
2022/11/13 01:08:25;;;;;;;26.58;18.42;;;;;;;;;;5091111;28;20024;-65
2022/11/13 01:10:51;;;;;;;25.52;17.55;;;;;;;;;;5090812;28;20499;-65
2022/11/13 01:13:17;;;;;;;28.27;18.95;;;;;;;;;;5090451;28;20468;-62
2022/11/13 01:15:44;;;;;;;29.58;17.88;;;;;;;;;;5092052;28;20021;-64
2022/11/13 01:18:10;;;;;;;29.38;18.48;;;;;;;;;;5092307;28;20107;-64
2022/11/13 01:20:36;;;;;;;24.65;16.25;;;;;;;;;;5091061;28;20074;-67
2022/11/13 01:23:02;;;;;;;24.00;16.55;;;;;;;;;;5090252;28;20024;-62
2022/11/13 01:25:29;;;;;;;24.63;16.40;;;;;;;;;;5090958;28;20020;-66
2022/11/13 01:27:55;;;;;;;24.08;16.98;;;;;;;;;;5092289;28;20024;-65
2022/11/13 01:30:21;;;;;;;28.20;18.15;;;;;;;;;;5092181;28;20476;-66
2022/11/13 01:32:47;;;;;;;26.50;18.25;;;;;;;;;;5091958;28;20028;-65
2022/11/13 01:35:13;;;;;;;26.23;17.75;;;;;;;;;;5091999;28;20020;-65
2022/11/13 01:37:39;;;;;;;26.40;17.85;;;;;;;;;;5091181;28;20025;-64
2022/11/13 01:40:05;;;;;;;25.33;17.95;;;;;;;;;;5092074;28;20385;-64
2022/11/13 01:42:32;;;;;;;26.88;17.63;;;;;;;;;;5091308;28;20024;-65
2022/11/13 01:44:59;;;;;;;25.00;17.98;;;;;;;;;;5090533;28;20052;-64
2022/11/13 01:47:26;;;;;;;28.50;19.73;;;;;;;;;;5091004;28;20023;-65
2022/11/13 01:49:54;;;;;;;27.13;19.55;;;;;;;;;;5091903;28;20028;-65
2022/11/13 01:52:20;;;;;;;;;;;;;;;;;;5091096;28;20024;-64
2022/11/13 01:54:48;;;;;;;31.38;21.33;;;;;;;;;;5091204;28;19957;-63
2022/11/13 01:57:14;;;;;;;30.85;20.42;;;;;;;;;;5090691;28;20027;-66
2022/11/13 01:59:43;;;;;;;33.40;21.20;;;;;;;;;;5090650;28;20024;-64
2022/11/13 02:02:09;;;;;;;30.50;19.60;;;;;;;;;;5090625;28;20024;-65
2022/11/13 02:04:35;;;;;;;26.80;18.08;;;;;;;;;;5089944;28;20032;-65
2022/11/13 02:07:04;;;;;;;27.23;18.50;;;;;;;;;;5090611;28;20024;-64
2022/11/13 02:09:34;;;;;;;29.40;18.17;;;;;;;;;;5090709;28;20028;-64
2022/11/13 02:12:00;;;;;;;28.00;18.13;;;;;;;;;;5090460;28;20047;-65
2022/11/13 02:14:27;;;;;;;27.95;17.48;;;;;;;;;;5089635;28;20020;-66
2022/11/13 02:16:57;;;;;;;27.30;18.20;;;;;;;;;;5090727;28;20020;-64
2022/11/13 02:19:29;;;;;;;29.70;17.38;;;;;;;;;;5091818;28;20468;-65
2022/11/13 02:22:05;;;;;;;25.05;17.45;;;;;;;;;;5093406;28;20468;-64
2022/11/13 02:24:33;;;;;;;23.60;16.13;;;;;;;;;;5093201;28;20035;-64
2022/11/13 02:27:04;;;;;;;26.88;16.95;;;;;;;;;;5095144;28;20046;-64
2022/11/13 02:29:30;;;;;;;23.55;16.17;;;;;;;;;;5095020;28;20059;-64
2022/11/13 02:31:56;;;;;;;22.92;15.27;;;;;;;;;;5093706;28;20081;-65
2022/11/13 02:34:22;;;;;;;24.92;16.25;;;;;;;;;;5094233;28;20020;-64
2022/11/13 02:36:48;;;;;;;23.05;15.35;;;;;;;;;;5094975;28;20396;-65
2022/11/13 02:39:14;;;;;;;25.42;15.45;;;;;;;;;;5093640;28;20396;-64
2022/11/13 02:41:40;;;;;;;23.70;15.07;;;;;;;;;;5093367;28;20028;-64
2022/11/13 02:44:07;;;;;;;25.38;15.90;;;;;;;;;;5092570;28;20042;-65
2022/11/13 02:46:33;;;;;;;24.85;16.40;;;;;;;;;;5094689;28;20040;-64
2022/11/13 02:48:59;;;;;;;23.92;16.10;;;;;;;;;;5094642;28;20546;-64
2022/11/13 02:51:25;;;;;;;25.25;15.88;;;;;;;;;;5093480;28;20111;-64
2022/11/13 02:53:51;;;;;;;25.45;15.90;;;;;;;;;;5092492;28;20070;-63
2022/11/13 02:56:17;;;;;;;23.42;15.32;;;;;;;;;;5093378;28;20020;-64
2022/11/13 02:58:43;;;;;;;25.35;16.35;;;;;;;;;;5093381;28;20024;-64
2022/11/13 03:01:09;;;;;;;24.33;16.30;;;;;;;;;;5093664;28;20058;-63
2022/11/13 03:03:35;;;;;;;23.92;15.55;;;;;;;;;;5092452;28;20031;-64
2022/11/13 03:06:02;;;;;;;25.60;16.20;;;;;;;;;;5094160;28;20134;-64
2022/11/13 03:08:28;;;;;;;25.92;16.52;;;;;;;;;;5093001;28;20034;-63
2022/11/13 03:10:54;;;;;;;24.27;18.20;;;;;;;;;;5093285;28;20020;-64
2022/11/13 03:13:20;;;;;;;28.00;19.15;;;;;;;;;;5093616;28;20073;-64
2022/11/13 03:15:46;;;;;;;27.52;18.67;;;;;;;;;;5092862;28;20341;-65
2022/11/13 03:18:12;;;;;;;28.35;16.60;;;;;;;;;;5094040;28;20509;-64
2022/11/13 03:20:39;;;;;;;25.58;17.23;;;;;;;;;;5092898;28;20388;-64
2022/11/13 03:23:05;;;;;;;25.88;17.27;;;;;;;;;;5093321;28;20052;-65
2022/11/13 03:25:33;;;;;;;28.60;19.80;;;;;;;;;;5092832;28;20020;-65
2022/11/13 03:28:00;;;;;;;33.50;21.20;;;;;;;;;;5091039;28;20011;-66
2022/11/13 03:30:26;;;;;;;32.35;20.42;;;;;;;;;;5093894;28;20035;-64
2022/11/13 03:32:53;;;;;;;32.97;21.75;;;;;;;;;;5093437;28;20027;-64
2022/11/13 03:35:19;;;;;;;30.58;19.85;;;;;;;;;;5091629;28;20028;-64
2022/11/13 03:37:45;;;;;;;29.88;20.92;;;;;;;;;;5092565;28;20047;-64
2022/11/13 03:40:11;;;;;;;30.27;20.65;;;;;;;;;;5092940;28;20484;-65
2022/11/13 03:42:37;;;;;;;28.77;19.10;;;;;;;;;;5092291;28;20089;-64
2022/11/13 03:45:03;;;;;;;31.38;19.27;;;;;;;;;;5091615;28;20446;-63
2022/11/13 03:47:29;;;;;;;27.98;19.27;;;;;;;;;;5093492;28;20031;-64
2022/11/13 03:49:55;;;;;;;23.55;15.77;;;;;;;;;;5093094;28;20084;-62
2022/11/13 03:52:21;;;;;;;24.63;16.13;;;;;;;;;;5092454;28;20384;-64
2022/11/13 03:54:47;;;;;;;23.60;16.52;;;;;;;;;;5091561;28;20035;-64
2022/11/13 03:57:13;;;;;;;24.80;16.35;;;;;;;;;;5092090;28;20016;-65
2022/11/13 03:59:39;;;;;;;24.83;16.48;;;;;;;;;;5092343;28;20032;-65
2022/11/13 04:02:05;;;;;;;26.15;17.20;;;;;;;;;;5091817;28;20156;-64
2022/11/13 04:04:31;;;;;;;29.58;18.10;;;;;;;;;;5092500;28;20046;-65
2022/11/13 04:06:57;;;;;;;26.40;18.67;;;;;;;;;;5092747;28;20028;-65
2022/11/13 04:09:23;;;;;;;25.25;17.58;;;;;;;;;;5092127;28;20151;-64
2022/11/13 04:11:49;;;;;;;27.38;18.88;;;;;;;;;;5092042;28;20020;-65
2022/11/13 04:14:16;;;;;;;27.85;17.70;;;;;;;;;;5092597;28;20404;-64
2022/11/13 04:16:42;;;;;;;28.00;16.95;;;;;;;;;;5092870;28;20107;-63
2022/11/13 04:19:08;;;;;;;25.58;16.45;;;;;;;;;;5092841;28;20028;-64
2022/11/13 04:21:34;;;;;;;24.92;17.23;;;;;;;;;;5092448;28;20054;-64
2022/11/13 04:24:00;;;;;;;26.27;17.00;;;;;;;;;;5091582;28;20020;-65
2022/11/13 04:26:26;;;;;;;24.73;16.20;;;;;;;;;;5092238;28;20073;-65
2022/11/13 04:28:52;;;;;;;24.77;16.15;;;;;;;;;;5091896;28;20028;-64
2022/11/13 04:31:18;;;;;;;24.73;16.95;;;;;;;;;;5092234;28;20024;-65
2022/11/13 04:33:44;;;;;;;25.15;16.65;;;;;;;;;;5091251;28;20016;-64
2022/11/13 04:36:10;;;;;;;25.98;16.65;;;;;;;;;;5093053;28;20016;-65
2022/11/13 04:38:36;;;;;;;27.98;18.52;;;;;;;;;;5093360;28;20024;-65
2022/11/13 04:43:46;;;;;;;26.83;18.75;;;;;;;;;;5091862;28;20043;-65
2022/11/13 04:46:12;;;;;;;31.38;19.77;;;;;;;;;;5092216;28;20039;-65
2022/11/13 04:48:38;;;;;;;26.02;18.13;;;;;;;;;;5078930;28;20028;-66
2022/11/13 04:51:04;;;;;;;30.10;19.25;;;;;;;;;;5071682;28;20034;-64
2022/11/13 04:53:33;;;;;;;27.75;18.10;;;;;;;;;;5072138;28;20020;-64
2022/11/13 04:55:59;;;;;;;;;;;;;;;;;;5071917;28;20074;-64
2022/11/13 04:58:25;;;;;;;25.83;17.52;;;;;;;;;;5072735;28;19908;-64
2022/11/13 05:00:51;;;;;;;27.42;17.55;;;;;;;;;;5071440;28;20021;-65
2022/11/13 05:03:17;;;;;;;26.17;18.23;;;;;;;;;;5070657;28;20384;-64
2022/11/13 05:05:43;;;;;;;26.40;19.13;;;;;;;;;;5071543;28;20017;-64
2022/11/13 05:08:09;;;;;;;27.23;18.17;;;;;;;;;;5071702;28;20439;-66
2022/11/13 05:10:35;;;;;;;27.90;18.55;;;;;;;;;;5071749;28;20025;-65
2022/11/13 05:13:01;;;;;;;29.30;20.67;;;;;;;;;;5070485;28;20028;-64
2022/11/13 05:15:27;;;;;;;27.98;19.27;;;;;;;;;;5071260;28;20081;-64
2022/11/13 05:17:53;;;;;;;30.10;18.60;;;;;;;;;;5071338;28;20055;-65
2022/11/13 05:20:19;;;;;;;29.90;18.90;;;;;;;;;;5072673;28;20040;-65
2022/11/13 05:22:45;;;;;;;26.35;18.65;;;;;;;;;;5071207;28;20025;-64
2022/11/13 05:25:11;;;;;;;26.58;17.92;;;;;;;;;;5070761;28;20062;-64
2022/11/13 05:27:37;;;;;;;26.95;17.35;;;;;;;;;;5070954;28;20511;-64
2022/11/13 05:30:04;;;;;;;27.23;16.80;;;;;;;;;;5071901;28;20120;-64
2022/11/13 05:32:31;;;;;;;23.98;15.95;;;;;;;;;;5071232;28;20021;-64
2022/11/13 05:34:57;;;;;;;25.38;17.00;;;;;;;;;;5071741;28;20013;-65
2022/11/13 05:37:23;;;;;;;24.95;16.45;;;;;;;;;;5071447;28;20017;-66
2022/11/13 05:39:49;;;;;;;23.90;16.00;;;;;;;;;;5071254;28;20473;-64
2022/11/13 05:42:15;;;;;;;25.55;17.08;;;;;;;;;;5071266;28;20443;-64
2022/11/13 05:44:41;;;;;;;23.83;15.90;;;;;;;;;;5091910;22;20504;-62
2022/11/13 05:47:07;;;;;;;26.13;17.23;;;;;;;;;;5071414;28;20028;-61
2022/11/13 05:49:33;;;;;;;25.05;16.45;;;;;;;;;;5070145;28;20377;-61
2022/11/13 05:51:59;;;;;;;24.23;15.43;;;;;;;;;;5070266;28;20021;-60
2022/11/13 05:54:25;;;;;;;23.80;17.00;;;;;;;;;;5069458;28;20021;-61
2022/11/13 05:56:51;;;;;;;23.55;16.23;;;;;;;;;;5069746;28;20107;-62
2022/11/13 05:59:17;;;;;;;22.67;15.82;;;;;;;;;;5061428;28;20052;-62
2022/11/13 06:01:43;;;;;;;23.98;16.75;;;;;;;;;;5063026;28;20055;-63
2022/11/13 06:04:10;;;;;;;24.33;15.77;;;;;;;;;;5074445;28;20525;-65
2022/11/13 06:06:36;;;;;;;25.58;17.80;;;;;;;;;;5076249;28;20116;-60
2022/11/13 06:09:03;;;;;;;27.20;18.25;;;;;;;;;;5053683;28;20021;-60
2022/11/13 06:11:29;;;;;;;30.27;18.25;;;;;;;;;;5053767;28;20021;-62
2022/11/13 06:13:56;;;;;;;23.17;16.35;;;;;;;;;;5056988;28;20066;-62
2022/11/13 06:16:26;;;;;;;23.48;16.20;;;;;;;;;;5090286;28;20044;-61
2022/11/13 06:18:57;;;;;;;25.63;16.88;;;;;;;;;;5090310;28;20025;-62
2022/11/13 06:21:24;;;;;;;25.02;17.30;;;;;;;;;;5090297;28;20020;-60
2022/11/13 06:23:50;;;;;;;26.90;18.45;;;;;;;;;;5089531;28;20028;-60
2022/11/13 06:26:21;;;;;;;25.55;17.67;;;;;;;;;;5074892;28;20593;-60
2022/11/13 06:28:47;;;;;;;26.05;16.92;;;;;;;;;;5090422;28;20392;-58
2022/11/13 06:31:23;;;;;;;25.23;17.40;;;;;;;;;;5083829;28;20389;-59
2022/11/13 06:33:49;;;;;;;26.20;17.48;;;;;;;;;;5053654;28;20048;-60
2022/11/13 06:36:17;;;;;;;23.58;17.08;;;;;;;;;;5053376;28;20111;-57
2022/11/13 06:38:43;;;;;;;24.65;16.05;;;;;;;;;;5053319;28;20116;-60
2022/11/13 06:41:11;;;;;;;26.08;16.83;;;;;;;;;;5054524;28;20100;-58
2022/11/13 06:43:37;;;;;;;24.83;15.60;;;;;;;;;;5051942;28;20028;-58
2022/11/13 06:46:04;;;;;;;27.08;18.08;;;;;;;;;;5054242;28;20025;-59
2022/11/13 06:48:30;;;;;;;24.48;17.15;;;;;;;;;;5052954;28;20378;-60
2022/11/13 06:50:59;;;;;;;25.67;16.85;;;;;;;;;;5052925;28;20025;-60
2022/11/13 06:53:25;;;;;;;23.27;15.85;;;;;;;;;;5052132;28;20021;-63
2022/11/13 06:55:51;;;;;;;24.52;16.42;;;;;;;;;;5052916;28;20018;-63
2022/11/13 06:58:17;;;;;;;25.27;16.88;;;;;;;;;;5068575;28;20031;-62
2022/11/13 07:00:43;;;;;;;22.33;14.98;;;;;;;;;;5072811;28;20405;-60
2022/11/13 07:03:17;;;;;;;23.35;15.55;;;;;;;;;;5072066;28;20453;-59
2022/11/13 07:05:43;;;;;;;23.23;14.57;;;;;;;;;;5072673;28;20685;-60
2022/11/13 07:08:09;;;;;;;28.15;17.70;;;;;;;;;;5072045;28;20542;-61
2022/11/13 07:10:35;;;;;;;23.38;15.95;;;;;;;;;;5072275;28;20067;-61
2022/11/13 07:13:01;;;;;;;22.88;15.25;;;;;;;;;;5071476;28;20024;-61
2022/11/13 07:15:27;;;;;;;23.35;14.77;;;;;;;;;;5072566;28;20052;-60
2022/11/13 07:17:53;;;;;;;24.13;15.80;;;;;;;;;;5073571;28;20047;-64
2022/11/13 07:20:19;;;;;;;26.45;16.20;;;;;;;;;;5072665;28;20052;-62
2022/11/13 07:22:45;;;;;;;23.77;14.57;;;;;;;;;;5072328;28;20123;-61
2022/11/13 07:25:11;;;;;;;24.67;15.90;;;;;;;;;;5071641;28;20028;-57
2022/11/13 07:27:37;;;;;;;22.15;14.02;;;;;;;;;;5071998;28;20386;-64
2022/11/13 07:30:03;;;;;;;22.65;14.52;;;;;;;;;;5072071;28;20047;-60
2022/11/13 07:32:29;;;;;;;20.95;14.02;;;;;;;;;;5071441;28;20116;-61
2022/11/13 07:34:56;;;;;;;22.25;14.45;;;;;;;;;;5071069;28;20059;-64
2022/11/13 07:37:22;;;;;;;23.00;14.25;;;;;;;;;;5073365;28;20025;-62
2022/11/13 07:39:48;;;;;;;21.00;13.90;;;;;;;;;;5072164;28;20480;-62
2022/11/13 07:42:14;;;;;;;19.60;13.38;;;;;;;;;;5072982;28;20101;-62
2022/11/13 07:44:40;;;;;;;21.45;13.30;;;;;;;;;;5070748;28;20036;-60
2022/11/13 07:47:06;;;;;;;21.60;13.43;;;;;;;;;;5071653;28;20035;-59
2022/11/13 07:49:32;;;;;;;20.98;13.25;;;;;;;;;;5073022;28;20094;-63
2022/11/13 07:51:58;;;;;;;24.08;13.65;;;;;;;;;;5071703;28;20028;-63
2022/11/13 07:54:24;;;;;;;19.55;12.75;;;;;;;;;;5070691;28;20016;-63
2022/11/13 07:56:50;;;;;;;19.85;12.10;;;;;;;;;;5072847;28;20393;-61
2022/11/13 07:59:16;;;;;;;20.90;12.48;;;;;;;;;;5071506;28;20036;-62
2022/11/13 08:01:42;;;;;;;19.70;12.95;;;;;;;;;;5071293;28;20020;-61
2022/11/13 08:04:08;;;;;;;20.73;13.80;;;;;;;;;;5070532;28;20035;-62
2022/11/13 08:06:36;;;;;;;20.02;12.77;;;;;;;;;;5071049;28;20464;-62
2022/11/13 08:09:02;;;;;;;20.67;12.80;;;;;;;;;;5071267;28;20020;-61
2022/11/13 08:11:28;;;;;;;20.42;12.27;;;;;;;;;;5071212;28;20082;-62
2022/11/13 08:13:54;;;;;;;20.25;12.43;;;;;;;;;;5070576;28;20025;-63
2022/11/13 08:16:22;;;;;;;19.33;12.65;;;;;;;;;;5071161;28;20509;-62
2022/11/13 08:18:48;;;;;;;21.73;11.60;;;;;;;;;;5070658;28;20032;-62
2022/11/13 08:21:14;;;;;;;19.10;11.70;;;;;;;;;;5071032;28;20042;-62
2022/11/13 08:23:41;;;;;;;21.00;12.10;;;;;;;;;;5070377;28;20028;-63
2022/11/13 08:26:07;;;;;;;21.55;13.23;;;;;;;;;;5071130;28;20033;-61
2022/11/13 08:28:34;;;;;;;18.83;11.63;;;;;;;;;;5070871;28;20546;-63
2022/11/13 08:31:00;;;;;;;20.67;11.95;;;;;;;;;;5070899;28;20044;-61
2022/11/13 08:33:26;;;;;;;19.38;11.60;;;;;;;;;;5071274;28;20085;-60
2022/11/13 08:35:53;;;;;;;19.65;11.73;;;;;;;;;;5070622;28;20035;-62
2022/11/13 08:38:19;;;;;;;20.23;11.77;;;;;;;;;;5070925;28;20059;-61
2022/11/13 08:40:45;;;;;;;18.58;11.68;;;;;;;;;;5070927;28;20123;-63
2022/11/13 08:43:11;;;;;;;18.60;11.65;;;;;;;;;;5070039;28;20063;-60
2022/11/13 08:45:37;;;;;;;18.77;11.57;;;;;;;;;;5070406;28;20060;-62
2022/11/13 08:48:03;;;;;;;17.95;11.40;;;;;;;;;;5071874;28;20028;-59
2022/11/13 08:50:30;;;;;;;17.85;11.02;;;;;;;;;;5070631;28;20062;-61
2022/11/13 08:52:57;;;;;;;20.10;11.52;;;;;;;;;;5070334;28;20031;-61
2022/11/13 08:55:23;;;;;;;18.33;11.00;;;;;;;;;;5071312;28;20400;-59
2022/11/13 08:57:49;;;;;;;18.10;11.25;;;;;;;;;;5070560;28;20507;-63
2022/11/13 09:00:16;;;;;;;18.88;10.70;;;;;;;;;;5070386;28;20046;-63
2022/11/13 09:02:42;;;;;;;18.30;10.85;;;;;;;;;;5069369;28;20494;-61
2022/11/13 09:05:08;;;;;;;17.52;10.98;;;;;;;;;;5070580;28;20032;-63
2022/11/13 09:07:34;;;;;;;17.38;11.38;;;;;;;;;;5070356;28;20026;-63
2022/11/13 09:10:00;;;;;;;18.48;11.05;;;;;;;;;;5071779;28;20393;-65
2022/11/13 09:12:26;;;;;;;19.45;11.30;;;;;;;;;;5070467;28;20028;-62
2022/11/13 09:14:52;;;;;;;17.35;10.35;;;;;;;;;;5069306;28;20024;-63
2022/11/13 09:17:18;;;;;;;18.90;11.18;;;;;;;;;;5070250;28;20063;-63
2022/11/13 09:19:44;;;;;;;17.40;10.88;;;;;;;;;;5071431;28;20047;-63
2022/11/13 09:22:10;;;;;;;18.17;11.30;;;;;;;;;;5071502;28;20027;-63
2022/11/13 09:24:36;;;;;;;17.88;10.80;;;;;;;;;;5070663;28;20032;-63
2022/11/13 09:27:03;;;;;;;17.67;12.05;;;;;;;;;;5071537;28;20028;-63
2022/11/13 09:29:29;;;;;;;19.10;11.63;;;;;;;;;;5069787;28;20055;-62
2022/11/13 09:31:56;;;;;;;17.08;10.82;;;;;;;;;;5073822;28;20435;-63
2022/11/13 09:34:22;;;;;;;17.17;11.35;;;;;;;;;;5074744;28;20017;-63
2022/11/13 09:36:48;;;;;;;17.75;10.68;;;;;;;;;;5074639;28;20377;-63
2022/11/13 09:39:15;;;;;;;18.95;11.30;;;;;;;;;;5075780;28;20440;-63
2022/11/13 09:41:44;;;;;;;17.98;11.07;;;;;;;;;;5075903;28;20028;-63
2022/11/13 09:44:10;;;;;;;;;;;;;;;;;;5075170;28;20032;-63
2022/11/13 09:46:39;;;;;;;18.50;11.35;;;;;;;;;;5068657;28;19942;-63
2022/11/13 09:49:11;;;;;;;18.30;11.65;;;;;;;;;;5059832;28;20033;-63
2022/11/13 09:51:38;;;;;;;18.38;10.95;;;;;;;;;;5054300;28;20028;-63
2022/11/13 09:54:14;;;;;;;17.83;10.82;;;;;;;;;;5054449;28;20029;-65
2022/11/13 09:56:45;;;;;;;18.48;11.30;;;;;;;;;;5054097;28;20029;-65
2022/11/13 09:59:21;;;;;;;18.15;10.55;;;;;;;;;;5068183;28;20111;-65
2022/11/13 10:01:52;;;;;;;18.73;11.05;;;;;;;;;;5073940;28;20400;-66
2022/11/13 10:04:24;;;;;;;18.77;10.57;;;;;;;;;;5074519;28;20506;-66
2022/11/13 10:06:53;;;;;;;19.88;10.73;;;;;;;;;;5074194;28;20480;-66
2022/11/13 10:09:24;;;;;;;18.05;11.07;;;;;;;;;;5073855;28;20070;-65
2022/11/13 10:11:55;;;;;;;18.02;11.18;;;;;;;;;;5074938;28;20423;-65
2022/11/13 10:14:21;;;;;;;17.85;11.02;;;;;;;;;;5072782;28;20070;-65
2022/11/13 10:17:16;;;;;;;18.67;10.60;;;;;;;;;;5074788;28;20021;-65
2022/11/13 10:19:42;;;;;;;18.65;12.18;;;;;;;;;;5064801;28;20032;-65
2022/11/13 10:22:20;;;;;;;19.50;11.88;;;;;;;;;;5073822;28;20460;-64
2022/11/13 10:24:49;;;;;;;17.17;11.57;;;;;;;;;;5074379;28;20029;-64
2022/11/13 10:27:15;;;;;;;;;;;;;;;;;;5073404;28;20033;-64
2022/11/13 10:29:42;;;;;;;16.98;10.40;;;;;;;;;;5072481;28;19944;-64
2022/11/13 10:32:17;;;;;;;16.10;10.60;;;;;;;;;;5074424;28;20380;-63
2022/11/13 10:34:49;;;;;;;17.17;11.07;;;;;;;;;;5073494;28;20438;-63
2022/11/13 10:37:21;;;;;;;17.23;10.30;;;;;;;;;;5072804;28;20043;-63
2022/11/13 10:39:47;;;;;;;16.35;10.38;;;;;;;;;;5073067;28;20035;-63
2022/11/13 10:42:34;;;;;;;17.45;11.00;;;;;;;;;;5073408;28;20028;-64
2022/11/13 10:45:00;;;;;;;17.08;11.15;;;;;;;;;;5073454;28;20032;-65
2022/11/13 10:47:27;;;;;;;16.15;11.18;;;;;;;;;;5074075;28;20036;-65
2022/11/13 10:49:55;;;;;;;18.27;11.55;;;;;;;;;;5071705;28;20123;-64
2022/11/13 10:52:26;;;;;;;16.80;11.83;;;;;;;;;;5073923;28;20515;-64
2022/11/13 10:55:04;;;;;;;18.20;12.43;;;;;;;;;;5071972;28;20778;-63
2022/11/13 10:57:33;;;;;;;16.92;11.98;;;;;;;;;;5072821;28;20035;-62
2022/11/13 10:59:59;;;;;;;16.67;12.55;;;;;;;;;;5074020;28;20028;-65
2022/11/13 11:02:26;;;;;;;17.25;12.95;;;;;;;;;;5072755;28;20222;-65
2022/11/13 11:05:03;;;;;;;16.80;12.35;;;;;;;;;;5073799;28;20119;-64
2022/11/13 11:07:29;;;;;;;18.50;12.68;;;;;;;;;;5072856;28;20036;-63
2022/11/13 11:09:55;;;;;;;16.80;12.77;;;;;;;;;;5072480;28;20028;-63
2022/11/13 11:12:22;;;;;;;17.95;13.45;;;;;;;;;;5072467;28;20020;-64
2022/11/13 11:14:58;;;;;;;16.65;13.65;;;;;;;;;;5072945;28;20051;-65
2022/11/13 11:17:44;;;;;;;16.67;13.45;;;;;;;;;;5070999;28;20036;-65
2022/11/13 11:20:26;;;;;;;17.65;14.50;;;;;;;;;;5071961;28;20499;-66
2022/11/13 11:22:54;;;;;;;17.30;13.40;;;;;;;;;;5073551;28;20476;-66
2022/11/13 11:25:33;;;;;;;17.52;12.98;;;;;;;;;;5071517;28;20020;-66
2022/11/13 11:28:05;;;;;;;16.60;13.20;;;;;;;;;;5073307;28;20074;-64
2022/11/13 11:30:35;;;;;;;16.98;13.30;;;;;;;;;;5071852;28;20051;-64
2022/11/13 11:33:09;;;;;;;17.48;13.30;;;;;;;;;;5071048;28;20419;-61
2022/11/13 11:35:50;;;;;;;17.05;13.45;;;;;;;;;;5072886;28;20031;-63
2022/11/13 11:38:39;;;;;;;16.77;13.80;;;;;;;;;;5071977;28;20027;-63
2022/11/13 11:41:08;;;;;;;18.48;13.93;;;;;;;;;;5069985;28;20037;-64
2022/11/13 11:43:57;;;;;;;16.52;13.50;;;;;;;;;;5090154;22;20024;-66
2022/11/13 11:46:23;;;;;;;17.08;14.32;;;;;;;;;;5036540;28;20183;-65
2022/11/13 11:48:50;;;;;;;17.35;13.82;;;;;;;;;;5034419;28;20021;-67
2022/11/13 11:51:25;;;;;;;16.40;13.35;;;;;;;;;;5035974;28;20055;-67
2022/11/13 11:54:10;;;;;;;16.52;13.43;;;;;;;;;;5035291;28;20024;-67
2022/11/13 11:56:42;;;;;;;17.35;13.82;;;;;;;;;;5036045;28;20122;-67
2022/11/13 11:59:22;;;;;;;16.88;13.32;;;;;;;;;;5053799;28;20021;-67
2022/11/13 12:02:03;;;;;;;16.77;13.07;;;;;;;;;;5054164;28;20021;-68
2022/11/13 12:04:32;;;;;;;17.73;12.77;;;;;;;;;;5035516;28;20166;-67
2022/11/13 12:07:17;;;;;;;16.25;13.13;;;;;;;;;;5036139;28;20428;-65
2022/11/13 12:10:03;;;;;;;17.17;13.52;;;;;;;;;;5036058;28;20032;-67
2022/11/13 12:12:44;;;;;;;17.10;12.90;;;;;;;;;;5004994;28;20112;-68
2022/11/13 12:15:10;;;;;;;16.95;12.65;;;;;;;;;;5034794;28;20032;-68
2022/11/13 12:17:55;;;;;;;16.52;12.50;;;;;;;;;;5053875;28;20054;-67
2022/11/13 12:20:36;;;;;;;17.02;13.20;;;;;;;;;;5054429;28;20039;-68
2022/11/13 12:23:21;;;;;;;16.17;12.77;;;;;;;;;;5034812;28;20101;-66
2022/11/13 12:25:53;;;;;;;16.83;12.90;;;;;;;;;;5036771;28;20531;-68
2022/11/13 12:28:25;;;;;;;16.40;12.93;;;;;;;;;;5038602;28;20124;-67
2022/11/13 12:31:01;;;;;;;16.52;12.95;;;;;;;;;;5038826;28;20087;-68
2022/11/13 12:33:33;;;;;;;17.17;12.68;;;;;;;;;;5036683;28;20558;-66
2022/11/13 12:36:00;;;;;;;16.38;13.07;;;;;;;;;;5035142;28;20021;-67
2022/11/13 12:38:36;;;;;;;16.63;13.10;;;;;;;;;;5034494;28;20025;-67
2022/11/13 12:41:15;;;;;;;16.37;12.70;;;;;;;;;;4680377;28;10000555;-66
2022/11/13 12:43:57;;;;;;;16.40;13.00;;;;;;;;;;5030708;28;20397;-67
2022/11/13 12:46:32;;;;;;;17.52;13.05;;;;;;;;;;5051139;28;20407;-66
2022/11/13 12:48:59;;;;;;;16.02;12.68;;;;;;;;;;5020700;28;20053;-67
2022/11/13 12:51:37;;;;;;;16.52;13.05;;;;;;;;;;5014002;28;20017;-66
2022/11/13 12:54:02;;;;;;;16.83;13.40;;;;;;;;;;5031474;28;20021;-66
2022/11/13 12:56:30;;;;;;;16.35;13.00;;;;;;;;;;4681725;28;9999798;-67
2022/11/13 12:58:58;;;;;;;15.75;12.20;;;;;;;;;;5039038;28;20021;-66
2022/11/13 13:01:26;;;;;;;16.42;11.98;;;;;;;;;;5012300;28;20092;-66
2022/11/13 13:04:11;;;;;;;17.23;11.85;;;;;;;;;;5011210;28;20032;-66
2022/11/13 13:07:00;;;;;;;16.88;12.80;;;;;;;;;;5029056;28;20103;-66
2022/11/13 13:09:29;;;;;;;16.05;12.50;;;;;;;;;;5029321;28;20358;-66
2022/11/13 13:12:05;;;;;;;16.85;12.13;;;;;;;;;;5030092;28;20021;-66
2022/11/13 13:14:50;;;;;;;16.05;12.40;;;;;;;;;;5023776;28;20017;-70
2022/11/13 13:17:21;;;;;;;24.02;13.00;;;;;;;;;;5049965;28;20106;-66
2022/11/13 13:19:57;;;;;;;15.52;11.88;;;;;;;;;;5050597;28;20045;-66
2022/11/13 13:22:25;;;;;;;16.40;12.05;;;;;;;;;;5051631;28;20025;-66
2022/11/13 13:24:51;;;;;;;;;;;;;;;;;;5052139;28;20118;-66
2022/11/13 13:27:21;;;;;;;17.00;12.48;;;;;;;;;;5052877;28;20359;-66
2022/11/13 13:29:47;;;;;;;15.48;11.95;;;;;;;;;;4700139;28;9999776;-67
2022/11/13 13:32:22;;;;;;;17.10;12.25;;;;;;;;;;5049213;28;20016;-65
2022/11/13 13:34:59;;;;;;;16.25;11.70;;;;;;;;;;5048603;28;20025;-65
2022/11/13 13:37:32;;;;;;;18.02;12.15;;;;;;;;;;5031084;28;20115;-65
2022/11/13 13:40:01;;;;;;;15.93;12.02;;;;;;;;;;5032662;28;20025;-66
2022/11/13 13:42:46;;;;;;;15.88;12.07;;;;;;;;;;5033820;28;20025;-66
2022/11/13 13:45:27;;;;;;;16.15;12.07;;;;;;;;;;5050584;28;20035;-68
2022/11/13 13:47:54;;;;;;;16.85;12.15;;;;;;;;;;5045538;28;20580;-67
2022/11/13 13:50:22;;;;;;;16.00;12.37;;;;;;;;;;5032335;28;20022;-67
2022/11/13 13:52:49;;;;;;;17.05;12.55;;;;;;;;;;5014494;28;20018;-67
2022/11/13 13:55:37;;;;;;;16.80;12.15;;;;;;;;;;5031140;28;20055;-68
2022/11/13 13:58:07;;;;;;;15.55;11.52;;;;;;;;;;5031970;28;20404;-67
2022/11/13 14:00:34;;;;;;;16.35;12.20;;;;;;;;;;5031923;28;20017;-67
2022/11/13 14:03:01;;;;;;;17.05;12.10;;;;;;;;;;5031335;28;20021;-67
2022/11/13 14:05:30;;;;;;;17.25;11.90;;;;;;;;;;5031545;28;20037;-68
2022/11/13 14:07:57;;;;;;;17.00;12.10;;;;;;;;;;4665878;28;10000689;-68
2022/11/13 14:10:24;;;;;;;16.00;11.75;;;;;;;;;;5018914;28;20037;-68
2022/11/13 14:12:50;;;;;;;18.50;12.30;;;;;;;;;;5021923;28;20021;-67
2022/11/13 14:15:33;;;;;;;16.02;11.80;;;;;;;;;;5018615;28;20362;-66
2022/11/13 14:18:11;;;;;;;17.17;11.73;;;;;;;;;;5038566;28;20051;-67
2022/11/13 14:20:44;;;;;;;16.35;12.05;;;;;;;;;;5021919;28;20036;-67
2022/11/13 14:23:12;;;;;;;17.30;12.00;;;;;;;;;;5042369;28;20020;-66
2022/11/13 14:25:38;;;;;;;14.98;11.43;;;;;;;;;;5041481;28;20429;-67
2022/11/13 14:28:04;;;;;;;16.77;11.73;;;;;;;;;;5023486;28;20025;-67